• Join FlightAware (Why Join?)
  • Login
  • US Flag 
Rudolph Flight #1: Arrived! 
06:39AM EST


 

Airport Tracker/Info


-or-


 

Live Flight TrackerFlight Track Log ✈ UAL341 ✈ 22-Apr-2013 ✈ KIAH - KMCO

Flight Track Log - Related Links

Times and Time Zones

All times are in EDT time to prevent confusion due to time zone crossing. See the UAL341 flight status page for this flight to view local times or setup timezone preferences in your user account.

Time Position Orientation Groundspeed Altitude Reporting Facility
EDT Latitude Longitude Course Direction KTS MPH feet Rate Location/Type
09:09AM 29.9569 -95.3369 98° East 166 191 1,200  Level Houston Center
09:09AM 29.9472 -95.3236 130° Southeast 163 188 1,700 1,800 Climbing Houston Center
09:10AM 29.9219 -95.2856 127° Southeast 192 221 3,300 1,080 Climbing Houston Center
09:11AM 29.8631 -95.2061 131° Southeast 282 325 4,000 720 Climbing Houston Center
09:12AM 29.9083 -94.7654 95° East  Level FlightAware Approximate
09:12AM 29.8297 -95.1564 128° Southeast 269 310 4,900  Level Houston Center
09:13AM 29.8948 -94.6225 98° East  Level FlightAware Approximate
09:13AM 29.8075 -95.0711 107° East 292 336 8,100  Level Houston Center
09:14AM 29.8781 -94.4801 98° East  Level FlightAware Approximate
09:14AM 29.8125 -94.9744 87° East 302 348 10,600  Level Houston Center
09:15AM 29.8236 -94.8331 85° East 374 430 12,700 2,040 Climbing Houston Center
09:16AM 29.8328 -94.7058 85° East 393 452 14,900 2,040 Climbing Houston Center
09:17AM 29.8433 -94.5728 85° East 409 471 17,000 1,920 Climbing Houston Center
09:18AM 29.8533 -94.4350 85° East 425 489 18,900 1,740 Climbing Houston Center
09:19AM 29.8631 -94.2958 85° East 434 499 20,700 1,680 Climbing Houston Center
09:20AM 29.8567 -94.1519 93° East 451 519 22,400 1,560 Climbing Houston Center
09:21AM 29.8561 -94.0031 90° East 464 534 24,000 1,560 Climbing Houston Center
09:22AM 29.8772 -93.8253 82° East 468 539 25,700 1,380 Climbing Houston Center
09:23AM 29.8928 -93.6733 83° East 479 551 26,900 1,020 Climbing Houston Center
09:24AM 29.9081 -93.5183 83° East 489 563 27,900 900 Climbing Houston Center
09:25AM 29.9253 -93.3589 83° East 502 578 28,800 960 Climbing Houston Center
09:26AM 29.9417 -93.1958 83° East 515 593 29,900 1,140 Climbing Houston Center
09:27AM 29.9614 -92.9994 83° East 519 597 31,200 1,200 Climbing Houston Center
09:28AM 29.9767 -92.8372 84° East 512 589 32,400 1,020 Climbing Houston Center
09:29AM 29.9886 -92.6719 85° East 517 595 33,400 900 Climbing Houston Center
09:30AM 30.0022 -92.5056 85° East 522 601 34,300 780 Climbing Houston Center
09:31AM 30.0181 -92.3392 84° East 524 603 35,100 720 Climbing Houston Center
09:32AM 30.0575 -92.1425 77° East 527 606 35,800 840 Climbing Houston Center
09:33AM 30.0886 -91.9772 78° East 528 608 36,900 480 Climbing Houston Center
09:34AM 30.1211 -91.8147 77° East 523 602 36,900  Level Houston Center
09:35AM 30.1500 -91.6558 78° East 520 598 37,000  Climbing Houston Center
09:36AM 30.1814 -91.4928 77° East 520 598 37,000  Level Houston Center
09:38AM 30.2111 -91.3292 78° East 520 598 37,000 -60 Level Houston Center
09:39AM 30.2481 -91.1344 78° East 518 596 36,900  Descending Houston Center
09:40AM 30.2781 -90.9717 78° East 517 595 37,000  Climbing Houston Center
09:41AM 30.3083 -90.8086 78° East 519 597 37,000  Level Houston Center
09:42AM 30.3369 -90.6464 78° East 517 595 37,000  Level Houston Center
09:43AM 30.3669 -90.4833 78° East 518 596 37,000  Level Houston Center
09:44AM 30.3942 -90.3200 79° East 518 596 37,000 -60 Level Houston Center
09:45AM 30.4228 -90.1233 80° East 516 594 36,900 -60 Descending Houston Center
09:46AM 30.4475 -89.9592 80° East 514 592 36,900  Level Houston Center
09:47AM 30.4742 -89.7908 80° East 516 594 37,000  Climbing Houston Center
09:48AM 30.4989 -89.6228 80° East 518 596 37,000  Level Houston Center
09:49AM 30.5225 -89.4586 80° East 515 593 37,000  Level Houston Center
09:50AM 30.5467 -89.2942 80° East 516 594 37,000 -60 Level Houston Center
09:51AM 30.5656 -89.1628 80° East 517 595 36,900  Descending Houston Center
09:52AM 30.5922 -88.9678 81° East 512 589 37,000  Climbing Houston Center
09:53AM 30.6178 -88.7917 80° East 506 582 37,000  Level Houston Center
09:54AM 30.6411 -88.6331 80° East 503 579 37,000  Level Houston Center
09:55AM 30.6633 -88.4744 81° East 501 577 37,000  Level Houston Center
09:56AM 30.6889 -88.2836 81° East 504 580 37,000  Level Houston Center
09:57AM 30.7106 -88.1350 80° East 504 580 37,000  Level Houston Center
09:58AM 30.7336 -87.9742 80° East 505 581 37,000  Level Houston Center
09:59AM 30.7458 -87.8617 83° East 502 578 37,000  Level Jacksonville Center
10:00AM 30.7667 -87.6983 82° East 502 578 37,000  Level Jacksonville Center
10:01AM 30.7789 -87.5372 85° East 502 578 37,000  Level Jacksonville Center
10:02AM 30.7867 -87.3756 87° East 497 572 37,000  Level Jacksonville Center
10:03AM 30.7972 -87.1922 86° East 503 579 37,000  Level Jacksonville Center
10:04AM 30.8067 -87.0306 86° East 503 579 37,000  Level Jacksonville Center
10:05AM 30.8161 -86.8692 86° East 503 579 37,000  Level Jacksonville Center
10:06AM 30.8253 -86.7097 86° East 498 573 37,000 -60 Level Jacksonville Center
10:07AM 30.8231 -86.5647 91° East 492 566 36,900  Descending Jacksonville Center
10:08AM 30.8214 -86.4050 91° East 498 573 37,000  Climbing Jacksonville Center
10:09AM 30.8153 -86.2450 93° East 498 573 37,000  Level Jacksonville Center
10:10AM 30.8131 -86.0853 91° East 498 573 37,000  Level Jacksonville Center
10:11AM 30.8108 -85.9256 91° East 493 567 37,000  Level Jacksonville Center
10:12AM 30.8061 -85.7658 92° East 493 567 37,000 -60 Level Jacksonville Center
10:13AM 30.8036 -85.5942 91° East 493 567 36,900 -60 Descending Jacksonville Center
10:14AM 30.8006 -85.4344 91° East 493 567 36,900  Level Jacksonville Center
10:15AM 30.7956 -85.2747 92° East 493 567 37,000  Climbing Jacksonville Center
10:16AM 30.7836 -85.1197 95° East 493 567 37,000  Level Jacksonville Center
10:17AM 30.7444 -84.9714 107° East 482 555 37,000 -60 Level Jacksonville Center
10:18AM 30.6944 -84.8203 111° Southeast 483 556 36,900  Descending Jacksonville Center
10:19AM 30.6822 -84.6631 95° East 483 556 37,000 -120 Climbing Jacksonville Center
10:21AM 30.7050 -84.3519 85° East 478 550 36,600 -480 Descending Jacksonville Center
10:22AM 30.7025 -84.1925 91° East 478 550 35,700 -840 Descending Jacksonville Center
10:23AM 30.6872 -84.0353 96° East 488 562 35,000 -360 Descending Jacksonville Center
10:24AM 30.6742 -83.8756 95° East 488 562 35,000 -300 Level Jacksonville Center
10:25AM 30.6583 -83.7208 97° East 488 562 34,400 -900 Descending Jacksonville Center
10:26AM 30.6428 -83.5639 97° East 483 556 33,300 -1,620 Descending Jacksonville Center
10:27AM 30.6328 -83.4214 95° East 483 556 31,200 -2,100 Descending Jacksonville Center
10:28AM 30.6189 -83.2667 96° East 483 556 29,200 -1,980 Descending Jacksonville Center
10:29AM 30.6003 -83.1147 98° East 483 556 27,300 -1,200 Descending Jacksonville Center
10:30AM 30.5211 -83.0058 130° Southeast 442 509 26,900 -360 Descending Jacksonville Center
10:31AM 30.4628 -82.8831 119° Southeast 437 503 26,600 -660 Descending Jacksonville Center
10:32AM 30.4208 -82.7433 109° East 437 503 25,600 -900 Descending Jacksonville Center
10:33AM 30.3811 -82.6133 109° East 443 510 24,900 -300 Descending Jacksonville Center
10:34AM 30.3097 -82.5053 127° Southeast 420 483 25,000  Climbing Jacksonville Center
10:35AM 30.2011 -82.4839 170° South 374 430 25,000 -60 Level Jacksonville Center
10:36AM 30.0906 -82.4700 174° South 379 436 24,900  Descending Jacksonville Center
10:37AM 29.9797 -82.4514 172° South 394 453 25,000  Climbing Jacksonville Center
10:38AM 29.8731 -82.4064 160° South 399 459 25,000 -360 Level Jacksonville Center
10:39AM 29.7686 -82.3542 157° South 404 465 24,300 -1,020 Descending Jacksonville Center
10:40AM 29.6639 -82.3047 158° South 409 471 23,000 -1,740 Descending Jacksonville Center
10:41AM 29.5614 -82.2550 157° South 409 471 20,900 -2,100 Descending Jacksonville Center
10:42AM 29.4589 -82.2081 158° South 409 471 18,900 -1,860 Descending Jacksonville Center
10:43AM 29.3606 -82.1611 157° South 398 458 17,200 -1,500 Descending Jacksonville Center
10:44AM 29.2683 -82.1164 157° South 381 438 15,900 -1,620 Descending Jacksonville Center
10:45AM 29.1783 -82.0744 158° South 368 423 14,000 -2,100 Descending Jacksonville Center
10:46AM 29.0819 -82.0278 157° South 355 409 11,700 -1,500 Descending Jacksonville Center
10:47AM 28.9942 -81.9858 157° South 350 403 11,000 -360 Descending Jacksonville Center
10:48AM 28.9081 -81.9414 156° South 345 397 11,000  Level Jacksonville Center
10:49AM 28.8500 -81.8667 132° Southeast 341 392 11,000  Level Orlando TRACON
10:50AM 28.8000 -81.7833 124° Southeast 340 391 11,100 -300 Climbing Orlando TRACON
10:51AM 28.7500 -81.6833 120° Southeast 324 373 10,400 -1,020 Descending Orlando TRACON
10:52AM 28.7000 -81.6167 131° Southeast 298 343 9,100 -720 Descending Orlando TRACON
10:53AM 28.6667 -81.5333 114° Southeast 244 281 9,000 -60 Descending Orlando TRACON
10:54AM 28.6333 -81.4833 127° Southeast 216 249 9,000  Level Orlando TRACON
10:55AM 28.5833 -81.4333 139° Southeast 213 245 9,100  Climbing Orlando TRACON
10:56AM 28.5333 -81.4333 180° South 206 237 9,000 -600 Descending Orlando TRACON
10:57AM 28.4667 -81.4167 168° South 202 232 8,000 -1,140 Descending Orlando TRACON
10:58AM 28.4167 -81.4167 180° South 196 226 6,800 -1,260 Descending Orlando TRACON
10:59AM 28.3667 -81.4167 180° South 204 235 5,500 -900 Descending Orlando TRACON
11:00AM 28.3000 -81.4167 180° South 199 229 5,000 -720 Descending Orlando TRACON
11:01AM 28.2500 -81.4167 180° South 194 223 4,100 -540 Descending Orlando TRACON
11:02AM 28.2167 -81.3833 139° Southeast 194 223 4,000 -300 Descending Orlando TRACON
11:03AM 28.2167 -81.3333 90° East 185 213 3,500 -540 Descending Orlando TRACON
11:04AM 28.2667 -81.3167 16° North 177 204 3,000 -660 Descending Orlando TRACON
11:05AM 28.3167 -81.3167 360° North 158 182 2,200 -840 Descending Orlando TRACON